Eustis, Maine
Current Conditions -  °F | °C
As of 10:52 AM on Friday 21 Nov 2014 (Local Time) from KBML Reporting Station
Broken Clouds Broken Clouds  
Wind Chill: 11°   Ceiling: 3100
Heat Index: 23°   Visibility: 10mi
Dew Point:   Wind: 13mph
Humidity: 53%   Direction: 300°WNW
Pressure: 30.01"   Gusts: 23mph
Location:  45.22°N, 70.48°W
Report Text: KBML 211552Z AUTO 30011G20KT 10SM BKN031 BKN040 M05/M13 A3001 RMK AO2 UPB31E37SNE27B37E46 SLP181 P0000 T10501133
Loading
Personal Weather Stations






























Interactive Weather Map New forecast layout! Learn more

10-Day Weather Forecast

Advertisements
Track Severe Weather on mobile